Time;durP1;ratioP1;P1;durP2;ratioP2;P2;SDS_P1;SDS_P2;PMS_P1;PMS_P2;Temp;Humidity;BMP_temperature;BMP_pressure;BME280_temperature;BME280_humidity;BME280_pressure;Samples;Min_cycle;Max_cycle;Signal;HPM_P1;HPM_P2
2023/06/17 00:02:47;;;;;;;17.05;15.25;;;24.00;67.90;;;;;;4736951;55;22181;-35
2023/06/17 00:07:48;;;;;;;16.80;15.10;;;24.00;68.00;;;;;;4627836;55;21682;-37
2023/06/17 00:12:48;;;;;;;16.95;15.25;;;24.10;68.10;;;;;;4620639;55;21088;-38
2023/06/17 00:17:50;;;;;;;17.17;15.38;;;24.00;68.00;;;;;;4615853;60;21492;-36
2023/06/17 00:22:52;;;;;;;18.75;16.33;;;24.00;68.00;;;;;;4615450;59;21794;-36
2023/06/17 00:27:53;;;;;;;17.17;15.43;;;24.00;68.10;;;;;;4721321;55;21493;-36
2023/06/17 00:32:54;;;;;;;17.35;15.55;;;24.00;68.10;;;;;;4626797;56;21030;-36
2023/06/17 00:37:55;;;;;;;17.67;15.85;;;24.00;68.00;;;;;;4615490;59;21084;-34
2023/06/17 00:42:56;;;;;;;17.37;15.57;;;24.00;68.10;;;;;;4614495;60;21037;-37
2023/06/17 00:47:59;;;;;;;17.08;15.38;;;24.00;68.00;;;;;;4632485;55;21539;-35
2023/06/17 00:53:00;;;;;;;17.58;15.88;;;24.00;68.00;;;;;;4615284;60;21518;-37
2023/06/17 00:58:02;;;;;;;16.60;15.00;;;24.00;68.10;;;;;;4662373;55;21515;-36
2023/06/17 01:03:03;;;;;;;17.10;15.40;;;24.00;68.10;;;;;;4615472;56;21024;-34
2023/06/17 01:08:51;;;;;;;17.52;15.73;;;24.00;68.10;;;;;;4674456;56;21523;-34
2023/06/17 01:13:56;;;;;;;16.40;14.80;;;24.00;68.10;;;;;;4621707;56;21506;-38
2023/06/17 01:18:57;;;;;;;17.37;15.63;;;24.00;68.10;;;;;;4683361;56;21140;-38
2023/06/17 01:24:02;;;;;;;15.15;13.68;;;24.00;68.10;;;;;;4624610;56;21041;-37
2023/06/17 01:29:03;;;;;;;17.12;15.43;;;24.00;68.10;;;;;;4615617;60;21037;-38
2023/06/17 01:34:05;;;;;;;16.10;14.45;;;24.00;68.10;;;;;;4644948;55;21587;-36
2023/06/17 01:39:08;;;;;;;16.30;14.70;;;24.00;68.10;;;;;;4657848;56;21092;-38
2023/06/17 01:44:11;;;;;;;16.87;15.07;;;24.00;68.10;;;;;;4615146;60;21041;-37
2023/06/17 01:49:12;;;;;;;16.35;14.75;;;24.00;68.10;;;;;;4615292;60;21073;-36
2023/06/17 01:54:13;;;;;;;16.48;14.87;;;24.00;68.10;;;;;;4660749;55;21776;-34
2023/06/17 01:59:14;;;;;;;16.05;14.35;;;24.00;68.10;;;;;;4700161;55;21507;-37
2023/06/17 02:04:15;;;;;;;14.77;13.30;;;24.00;68.10;;;;;;4848397;55;21045;-35
2023/06/17 02:09:16;;;;;;;15.95;14.35;;;24.00;68.10;;;;;;4660922;55;21017;-35
2023/06/17 02:14:16;;;;;;;15.82;14.23;;;24.00;68.10;;;;;;4628597;55;21105;-37
2023/06/17 02:19:17;;;;;;;16.05;14.43;;;24.00;68.20;;;;;;4616021;59;21156;-35
2023/06/17 02:24:18;;;;;;;14.93;13.35;;;24.00;68.10;;;;;;4702915;56;21037;-37
2023/06/17 02:29:19;;;;;;;15.43;14.00;;;24.00;68.10;;;;;;4777096;55;21522;-38
2023/06/17 02:34:20;;;;;;;15.65;14.15;;;24.00;68.10;;;;;;4747473;55;21021;-36
2023/06/17 02:39:21;;;;;;;15.18;13.68;;;24.00;68.10;;;;;;4632616;56;21551;-35
2023/06/17 02:44:22;;;;;;;17.42;15.65;;;24.00;68.20;;;;;;4899640;55;21506;-38
2023/06/17 02:49:22;;;;;;;15.23;13.73;;;24.00;68.10;;;;;;4641761;55;21410;-35
2023/06/17 02:54:23;;;;;;;15.40;13.90;;;24.00;68.20;;;;;;4635617;55;21660;-36
2023/06/17 02:59:24;;;;;;;15.35;13.85;;;24.00;68.10;;;;;;4632106;55;21566;-37
2023/06/17 03:04:25;;;;;;;16.90;15.10;;;24.00;68.20;;;;;;4632997;55;21473;-36
2023/06/17 03:09:26;;;;;;;16.40;14.80;;;24.00;68.20;;;;;;4628409;55;21433;-37
2023/06/17 03:14:28;;;;;;;15.27;13.77;;;24.00;68.20;;;;;;4656608;55;21076;-34
2023/06/17 03:19:29;;;;;;;14.65;13.25;;;24.00;68.20;;;;;;4615665;60;21953;-39
2023/06/17 03:24:30;;;;;;;15.57;13.98;;;24.00;68.20;;;;;;4781753;55;21354;-38
2023/06/17 03:29:30;;;;;;;14.50;13.10;;;24.00;68.20;;;;;;4690628;55;21787;-38
2023/06/17 03:34:33;;;;;;;14.93;13.52;;;24.00;68.20;;;;;;4614679;59;21157;-37
2023/06/17 03:39:33;;;;;;;15.45;13.85;;;24.00;68.20;;;;;;4752007;55;21069;-35
2023/06/17 03:44:34;;;;;;;16.80;14.85;;;24.00;68.20;;;;;;4679659;55;21056;-37
2023/06/17 03:49:38;;;;;;;17.30;15.38;;;24.00;68.00;;;;;;4719758;55;21442;-36
2023/06/17 03:54:39;;;;;;;16.62;14.90;;;24.00;68.30;;;;;;4692736;55;21109;-37
2023/06/17 03:59:40;;;;;;;16.37;14.63;;;24.00;68.20;;;;;;4627327;55;21664;-38
2023/06/17 04:04:42;;;;;;;18.08;15.77;;;24.00;68.20;;;;;;4615511;56;21491;-36
2023/06/17 04:09:43;;;;;;;18.12;16.20;;;24.00;68.20;;;;;;4632389;55;21479;-35
2023/06/17 04:14:44;;;;;;;16.60;14.75;;;24.00;68.10;;;;;;4688247;55;21033;-35
2023/06/17 04:19:45;;;;;;;19.35;15.90;;;24.00;68.10;;;;;;4639936;55;21483;-35
2023/06/17 04:24:46;;;;;;;18.33;15.88;;;23.90;68.00;;;;;;4615858;60;21089;-34
2023/06/17 04:29:47;;;;;;;18.90;16.50;;;23.90;68.00;;;;;;4651406;56;21499;-34
2023/06/17 04:34:50;;;;;;;17.27;14.82;;;24.00;68.00;;;;;;4728553;55;21506;-39
2023/06/17 04:39:53;;;;;;;18.05;15.80;;;23.90;67.90;;;;;;4615329;58;21649;-39
2023/06/17 04:44:54;;;;;;;20.52;16.08;;;24.00;68.00;;;;;;4714330;55;21495;-34
2023/06/17 04:49:55;;;;;;;20.23;16.75;;;23.90;67.90;;;;;;4663334;55;21518;-38
2023/06/17 04:54:56;;;;;;;20.33;16.45;;;23.90;67.90;;;;;;4711338;56;21689;-40
2023/06/17 04:59:57;;;;;;;20.05;17.02;;;23.90;67.90;;;;;;4615459;60;21493;-36
2023/06/17 05:04:58;;;;;;;18.90;16.45;;;23.90;67.80;;;;;;4615285;60;21068;-39
2023/06/17 05:09:59;;;;;;;18.60;16.15;;;23.90;67.80;;;;;;4677208;55;21515;-39
2023/06/17 05:15:00;;;;;;;19.75;17.08;;;23.90;67.80;;;;;;4657605;56;21507;-37
2023/06/17 05:20:01;;;;;;;18.52;16.05;;;23.90;67.80;;;;;;4615226;56;21061;-36
2023/06/17 05:25:02;;;;;;;20.62;17.05;;;23.90;67.80;;;;;;4622517;56;21097;-38
2023/06/17 05:30:06;;;;;;;19.35;17.25;;;23.90;67.70;;;;;;4710687;56;21479;-37
2023/06/17 05:35:08;;;;;;;20.62;17.77;;;23.90;67.70;;;;;;4847010;56;21037;-37
2023/06/17 05:40:09;;;;;;;21.83;17.02;;;23.90;67.70;;;;;;4646782;56;21073;-36
2023/06/17 05:45:10;;;;;;;20.02;17.12;;;23.90;67.60;;;;;;4683206;56;21080;-42
2023/06/17 05:50:11;;;;;;;21.60;17.27;;;23.90;68.20;;;;;;4662755;56;21172;-36
2023/06/17 05:55:12;;;;;;;20.37;17.25;;;23.90;67.60;;;;;;4661376;55;21121;-37
2023/06/17 06:00:14;;;;;;;20.12;16.87;;;23.90;67.50;;;;;;4669638;55;21875;-38
2023/06/17 06:05:15;;;;;;;22.80;18.30;;;23.90;67.50;;;;;;4689063;55;21070;-39
2023/06/17 06:10:16;;;;;;;20.62;16.08;;;23.90;67.60;;;;;;4699563;56;21023;-37
2023/06/17 06:15:17;;;;;;;21.42;17.67;;;23.90;67.50;;;;;;4614764;59;21510;-38
2023/06/17 06:20:18;;;;;;;23.25;17.87;;;23.90;67.50;;;;;;4740792;55;21025;-37
2023/06/17 06:25:19;;;;;;;23.52;18.52;;;23.90;67.50;;;;;;4623989;56;21101;-36
2023/06/17 06:30:20;;;;;;;21.73;18.33;;;23.90;67.40;;;;;;4634494;55;21017;-38
2023/06/17 06:35:21;;;;;;;23.12;18.70;;;23.90;67.40;;;;;;4650584;55;21022;-36
2023/06/17 06:40:22;;;;;;;24.17;18.55;;;23.90;68.10;;;;;;4615237;60;21117;-38
2023/06/17 06:45:23;;;;;;;23.38;17.25;;;23.90;67.30;;;;;;4615520;55;21053;-40
2023/06/17 06:50:24;;;;;;;22.37;17.75;;;23.90;67.40;;;;;;4640609;55;21021;-38
2023/06/17 06:55:26;;;;;;;23.80;18.35;;;23.90;67.30;;;;;;4666344;56;21657;-36
2023/06/17 07:00:27;;;;;;;24.45;18.65;;;23.90;67.20;;;;;;4716089;55;21085;-37
2023/06/17 07:05:28;;;;;;;23.95;18.50;;;23.90;67.20;;;;;;4616011;56;21081;-36
2023/06/17 07:10:29;;;;;;;22.25;18.58;;;23.90;67.20;;;;;;4618616;55;21491;-37
2023/06/17 07:15:30;;;;;;;27.58;18.73;;;23.90;67.20;;;;;;4753074;55;21118;-38
2023/06/17 07:20:30;;;;;;;24.35;17.70;;;23.90;67.20;;;;;;4650513;56;21013;-38
2023/06/17 07:25:31;;;;;;;25.98;18.90;;;23.90;67.20;;;;;;4659607;55;21009;-38
2023/06/17 07:30:32;;;;;;;24.95;18.75;;;23.90;67.20;;;;;;4778029;55;21547;-36
2023/06/17 07:35:33;;;;;;;23.42;18.05;;;23.90;67.10;;;;;;4639619;56;21017;-37
2023/06/17 07:40:36;;;;;;;25.25;19.20;;;23.90;67.10;;;;;;4643649;55;21042;-37
2023/06/17 07:45:36;;;;;;;21.20;17.00;;;23.90;67.00;;;;;;4615449;59;21569;-38
2023/06/17 07:50:37;;;;;;;23.48;17.70;;;23.90;67.10;;;;;;4642473;55;21065;-38
2023/06/17 07:55:39;;;;;;;25.00;19.55;;;23.90;67.00;;;;;;4618227;55;21626;-35
2023/06/17 08:00:40;;;;;;;25.42;18.87;;;23.90;67.00;;;;;;4681771;56;21032;-37
2023/06/17 08:05:40;;;;;;;23.70;18.25;;;23.90;67.00;;;;;;4687404;55;21482;-36
2023/06/17 08:10:41;;;;;;;27.58;18.75;;;23.90;67.00;;;;;;4646687;55;21076;-37
2023/06/17 08:15:42;;;;;;;23.50;18.62;;;23.90;67.00;;;;;;4667778;55;21093;-37
2023/06/17 08:20:43;;;;;;;27.62;19.70;;;23.90;67.00;;;;;;4674791;55;21033;-36
2023/06/17 08:25:45;;;;;;;24.77;19.52;;;23.90;66.90;;;;;;4731573;55;21544;-40
2023/06/17 08:30:47;;;;;;;25.65;19.27;;;23.90;66.80;;;;;;4658617;56;21078;-38
2023/06/17 08:35:48;;;;;;;29.63;20.60;;;23.90;66.90;;;;;;4635845;55;21566;-34
2023/06/17 08:40:49;;;;;;;24.27;18.30;;;23.90;66.80;;;;;;4639666;55;21164;-36
2023/06/17 08:45:53;;;;;;;25.42;19.50;;;24.00;66.90;;;;;;4637423;56;21037;-35
2023/06/17 08:50:55;;;;;;;26.20;19.45;;;23.90;66.80;;;;;;4681491;56;21506;-37
2023/06/17 08:55:56;;;;;;;22.30;16.80;;;23.90;66.80;;;;;;4710540;56;21056;-36
2023/06/17 09:00:58;;;;;;;26.12;19.20;;;23.90;66.80;;;;;;4697377;56;21097;-38
2023/06/17 09:05:59;;;;;;;24.40;19.27;;;23.90;66.70;;;;;;4668884;56;21085;-39
2023/06/17 09:11:06;;;;;;;20.98;16.67;;;24.00;66.80;;;;;;4764090;56;21607;-38
2023/06/17 09:16:07;;;;;;;;;;;24.00;66.70;;;;;;4622473;55;21017;-37
2023/06/17 09:21:08;;;;;;;25.12;19.25;;;24.00;66.70;;;;;;4622876;56;20112;-36
2023/06/17 09:26:08;;;;;;;23.95;19.65;;;24.00;66.70;;;;;;4646149;56;21031;-37
2023/06/17 09:31:09;;;;;;;23.65;19.00;;;24.00;66.30;;;;;;4623509;55;21609;-37
2023/06/17 09:36:10;;;;;;;24.10;18.45;;;24.00;66.70;;;;;;4624296;55;21029;-40
2023/06/17 09:41:15;;;;;;;26.33;19.90;;;24.00;66.70;;;;;;4615101;60;21534;-37
2023/06/17 09:46:25;;;;;;;22.98;18.80;;;24.00;66.60;;;;;;4682841;55;21472;-39
2023/06/17 09:51:36;;;;;;;22.77;18.70;;;24.00;66.60;;;;;;4615149;57;21070;-38
2023/06/17 09:56:40;;;;;;;28.52;19.42;;;24.00;66.60;;;;;;4615431;57;21499;-39
2023/06/17 10:01:41;;;;;;;24.70;19.40;;;24.00;66.60;;;;;;4656635;56;21041;-38
2023/06/17 10:06:46;;;;;;;22.20;17.85;;;24.00;66.60;;;;;;4629695;55;21554;-38
2023/06/17 10:11:50;;;;;;;21.90;18.65;;;24.00;66.60;;;;;;4684422;56;21554;-36
2023/06/17 10:16:51;;;;;;;24.70;18.35;;;24.00;66.50;;;;;;4661801;56;21084;-35
2023/06/17 10:21:54;;;;;;;24.87;19.42;;;24.00;66.50;;;;;;4644440;56;21025;-35
2023/06/17 10:27:01;;;;;;;21.83;18.45;;;24.00;66.50;;;;;;4678436;56;21093;-36
2023/06/17 10:32:24;;;;;;;22.45;18.50;;;24.00;66.50;;;;;;4630896;56;21205;-39
2023/06/17 10:37:28;;;;;;;23.77;19.77;;;24.00;66.50;;;;;;4674193;56;21073;-37
2023/06/17 10:42:29;;;;;;;21.40;17.35;;;24.00;66.50;;;;;;4642500;55;21093;-37
2023/06/17 10:47:30;;;;;;;25.60;19.58;;;24.00;66.50;;;;;;4615779;59;21029;-38
2023/06/17 10:52:31;;;;;;;25.88;19.62;;;24.00;66.40;;;;;;4622238;56;21138;-35
2023/06/17 10:57:33;;;;;;;24.15;19.52;;;24.00;66.40;;;;;;4615239;59;21511;-38
2023/06/17 11:02:38;;;;;;;24.52;18.40;;;24.00;66.40;;;;;;4615227;60;21081;-38
2023/06/17 11:07:39;;;;;;;24.98;19.23;;;24.00;66.30;;;;;;4690409;56;20997;-36
2023/06/17 11:12:41;;;;;;;22.55;19.40;;;24.00;66.40;;;;;;4636313;55;21013;-35
2023/06/17 11:17:42;;;;;;;22.98;18.77;;;24.00;66.30;;;;;;4715374;55;21487;-33
2023/06/17 11:22:43;;;;;;;23.27;19.17;;;24.00;66.30;;;;;;4615512;59;21017;-36
2023/06/17 11:27:45;;;;;;;23.70;19.25;;;24.00;66.30;;;;;;4675778;56;21017;-35
2023/06/17 11:32:48;;;;;;;24.98;19.00;;;24.00;66.30;;;;;;4636181;55;21491;-39
2023/06/17 11:37:50;;;;;;;22.13;18.20;;;24.00;66.30;;;;;;4657324;56;21451;-37
2023/06/17 11:42:52;;;;;;;23.27;18.65;;;24.00;66.30;;;;;;4669778;55;21585;-37
2023/06/17 11:47:53;;;;;;;21.55;17.75;;;24.00;66.30;;;;;;4615393;60;21061;-37
2023/06/17 11:52:56;;;;;;;23.95;19.33;;;24.00;66.30;;;;;;4646246;56;21053;-38
2023/06/17 11:57:58;;;;;;;25.45;20.75;;;24.00;66.30;;;;;;4624464;56;21510;-37
2023/06/17 12:02:59;;;;;;;23.08;18.75;;;24.00;66.30;;;;;;4674018;56;21037;-35
2023/06/17 12:08:01;;;;;;;23.17;19.45;;;24.00;66.30;;;;;;4615603;56;21034;-40
2023/06/17 12:13:02;;;;;;;21.87;19.05;;;24.00;66.30;;;;;;4648287;56;21081;-37
2023/06/17 12:18:12;;;;;;;23.90;18.87;;;24.00;66.20;;;;;;4648968;55;21502;-35
2023/06/17 12:23:24;;;;;;;21.85;18.17;;;24.00;66.20;;;;;;4642341;56;21534;-31
2023/06/17 12:28:26;;;;;;;23.75;19.65;;;24.00;66.20;;;;;;4615659;60;21491;-41
2023/06/17 12:33:27;;;;;;;22.70;18.95;;;24.00;66.20;;;;;;4658396;55;21658;-39
2023/06/17 12:38:30;;;;;;;24.15;18.42;;;24.00;66.30;;;;;;4615548;59;21186;-38
2023/06/17 12:43:34;;;;;;;21.90;17.98;;;24.00;66.30;;;;;;4633338;56;21097;-36
2023/06/17 12:48:35;;;;;;;23.62;18.65;;;24.00;66.30;;;;;;4650717;56;21559;-41
2023/06/17 12:53:36;;;;;;;22.02;17.80;;;24.00;66.30;;;;;;4614872;60;21104;-36
2023/06/17 12:58:37;;;;;;;24.42;19.60;;;24.00;66.30;;;;;;4654695;55;21025;-38
2023/06/17 13:03:38;;;;;;;21.33;19.02;;;24.00;66.30;;;;;;4619742;55;21074;-38
2023/06/17 13:08:39;;;;;;;23.08;19.27;;;24.00;66.30;;;;;;4615525;60;21568;-36
2023/06/17 13:13:39;;;;;;;21.95;19.00;;;24.00;66.30;;;;;;4614543;60;21082;-35
2023/06/17 13:18:41;;;;;;;22.50;19.20;;;24.00;66.30;;;;;;4651504;55;21033;-36
2023/06/17 13:23:42;;;;;;;22.42;19.00;;;24.00;66.20;;;;;;4615484;60;21558;-37
2023/06/17 13:28:43;;;;;;;21.33;17.92;;;24.00;66.20;;;;;;4652532;55;21148;-37
2023/06/17 13:33:44;;;;;;;24.70;19.60;;;24.00;66.20;;;;;;4659020;55;21100;-35
2023/06/17 13:38:45;;;;;;;21.15;17.98;;;24.00;66.20;;;;;;4629967;55;21049;-35
2023/06/17 13:43:46;;;;;;;21.83;18.05;;;24.00;66.30;;;;;;4627294;55;21100;-36
2023/06/17 13:48:47;;;;;;;21.37;17.40;;;24.00;66.30;;;;;;4730023;56;21013;-36
2023/06/17 13:53:47;;;;;;;22.20;18.35;;;24.10;66.20;;;;;;4621201;55;21519;-37
2023/06/17 13:58:48;;;;;;;21.75;18.58;;;24.10;66.20;;;;;;4701144;55;21081;-36
2023/06/17 14:03:49;;;;;;;22.27;17.52;;;24.10;66.10;;;;;;4616904;55;21480;-36
2023/06/17 14:08:50;;;;;;;23.50;18.40;;;24.10;66.20;;;;;;4616024;60;21033;-37
2023/06/17 14:13:51;;;;;;;22.20;18.48;;;24.00;66.20;;;;;;4646553;55;21050;-38
2023/06/17 14:18:52;;;;;;;22.10;18.27;;;24.00;66.20;;;;;;4717823;55;21037;-35
2023/06/17 14:24:07;;;;;;;19.52;16.25;;;24.00;66.20;;;;;;4615985;59;21633;-35
2023/06/17 14:29:10;;;;;;;19.35;17.15;;;24.00;66.10;;;;;;4623127;56;21060;-37
2023/06/17 14:34:11;;;;;;;18.87;16.62;;;24.00;66.10;;;;;;4614982;60;21033;-34
2023/06/17 14:39:12;;;;;;;20.15;16.77;;;24.00;66.10;;;;;;4734122;55;21216;-36
2023/06/17 14:44:13;;;;;;;19.33;16.70;;;24.00;66.00;;;;;;4615419;59;21088;-37
2023/06/17 14:49:13;;;;;;;19.27;17.12;;;24.00;66.10;;;;;;4638506;55;21042;-35
2023/06/17 14:54:14;;;;;;;19.73;16.90;;;24.00;66.00;;;;;;4638030;55;21413;-37
2023/06/17 14:59:15;;;;;;;20.60;16.83;;;24.00;66.00;;;;;;4662500;55;21073;-36
2023/06/17 15:04:16;;;;;;;19.98;17.37;;;24.00;66.00;;;;;;4615777;59;21018;-38
2023/06/17 15:09:27;;;;;;;21.02;17.95;;;24.00;66.00;;;;;;4639377;55;21568;-37
2023/06/17 15:14:34;;;;;;;19.05;16.67;;;24.00;66.00;;;;;;4637960;56;21096;-37
2023/06/17 15:19:36;;;;;;;18.33;16.20;;;24.10;66.00;;;;;;4646623;56;21518;-37
2023/06/17 15:24:37;;;;;;;18.60;16.20;;;24.00;66.00;;;;;;4684467;55;21479;-35
2023/06/17 15:29:39;;;;;;;21.08;16.67;;;24.00;66.00;;;;;;4630518;55;21033;-36
2023/06/17 15:34:39;;;;;;;18.25;15.15;;;24.00;66.00;;;;;;4636278;55;21507;-37
2023/06/17 15:39:40;;;;;;;17.50;15.60;;;24.00;66.00;;;;;;4686635;55;21061;-36
2023/06/17 15:44:41;;;;;;;18.42;16.52;;;24.00;66.00;;;;;;4666413;56;21483;-36
2023/06/17 15:49:42;;;;;;;17.48;15.27;;;24.00;66.00;;;;;;4615598;59;21052;-37
2023/06/17 15:54:43;;;;;;;18.10;15.68;;;24.00;65.90;;;;;;4752811;55;21635;-34
2023/06/17 15:59:44;;;;;;;18.08;16.05;;;24.00;65.90;;;;;;4638271;55;21032;-36
2023/06/17 16:04:53;;;;;;;18.10;15.63;;;24.00;65.90;;;;;;4741806;56;21049;-35
2023/06/17 16:09:54;;;;;;;17.73;15.82;;;24.00;65.90;;;;;;4627387;55;22009;-35
2023/06/17 16:14:55;;;;;;;17.15;14.48;;;24.00;65.80;;;;;;4661195;55;21025;-37
2023/06/17 16:19:57;;;;;;;17.30;15.27;;;24.00;65.80;;;;;;4683744;55;21153;-37
2023/06/17 16:24:58;;;;;;;16.80;15.02;;;24.00;65.90;;;;;;4678554;55;21555;-37
2023/06/17 16:29:59;;;;;;;18.33;15.93;;;24.00;65.90;;;;;;4674035;55;21048;-41
2023/06/17 16:35:00;;;;;;;17.62;15.35;;;24.00;66.00;;;;;;4615203;59;21033;-37
2023/06/17 16:40:01;;;;;;;17.00;14.80;;;24.00;65.90;;;;;;4674374;55;21145;-36
2023/06/17 16:45:03;;;;;;;17.65;15.75;;;24.00;65.90;;;;;;4625275;55;21455;-36
2023/06/17 16:50:05;;;;;;;16.65;14.70;;;24.00;65.80;;;;;;4750055;56;21194;-33
2023/06/17 16:55:07;;;;;;;16.27;14.57;;;24.00;65.80;;;;;;4635318;56;21025;-35
2023/06/17 17:00:09;;;;;;;16.80;15.00;;;24.00;65.80;;;;;;4615695;56;21085;-36
2023/06/17 17:05:09;;;;;;;16.70;14.93;;;24.00;65.80;;;;;;4615824;60;21085;-37
2023/06/17 17:10:10;;;;;;;17.40;15.05;;;24.00;65.80;;;;;;4615393;55;21072;-36
2023/06/17 17:15:11;;;;;;;16.83;14.73;;;24.10;65.50;;;;;;4630918;55;21049;-36
2023/06/17 17:20:12;;;;;;;17.67;15.77;;;24.00;65.80;;;;;;4628161;55;21104;-35
2023/06/17 17:25:13;;;;;;;19.27;14.98;;;24.10;65.90;;;;;;4720860;55;21062;-36
2023/06/17 17:30:14;;;;;;;17.02;14.73;;;24.10;65.90;;;;;;4645587;56;21081;-36
2023/06/17 17:35:15;;;;;;;16.90;15.10;;;24.00;65.80;;;;;;4692485;55;21049;-36
2023/06/17 17:40:16;;;;;;;17.08;15.32;;;24.00;65.70;;;;;;4621680;55;21570;-36
2023/06/17 17:45:17;;;;;;;15.25;13.57;;;24.00;65.70;;;;;;4623768;55;21574;-34
2023/06/17 17:50:18;;;;;;;15.80;13.90;;;24.00;65.60;;;;;;4628040;55;21017;-36
2023/06/17 17:55:19;;;;;;;16.87;14.30;;;24.10;65.60;;;;;;4619801;55;21532;-35
2023/06/17 18:00:19;;;;;;;15.55;13.82;;;24.00;65.60;;;;;;4615207;57;21045;-36
2023/06/17 18:05:20;;;;;;;16.62;14.45;;;24.10;65.60;;;;;;4616285;55;21531;-36
2023/06/17 18:10:21;;;;;;;15.20;13.45;;;24.10;65.60;;;;;;4713879;55;21100;-35
2023/06/17 18:15:23;;;;;;;15.43;13.82;;;24.10;65.60;;;;;;4631555;56;21097;-36
2023/06/17 18:20:25;;;;;;;16.92;14.07;;;24.10;65.60;;;;;;4644861;55;21563;-37
2023/06/17 18:25:26;;;;;;;16.05;13.75;;;24.10;65.60;;;;;;4615083;60;21559;-37
2023/06/17 18:30:28;;;;;;;15.07;13.48;;;24.10;65.50;;;;;;4717026;55;21073;-35
2023/06/17 18:35:29;;;;;;;15.18;13.57;;;24.00;65.50;;;;;;4619368;55;21488;-36
2023/06/17 18:40:30;;;;;;;14.73;13.23;;;24.00;65.50;;;;;;4643802;55;21116;-39
2023/06/17 18:45:32;;;;;;;15.80;13.65;;;24.00;65.50;;;;;;4636725;55;21068;-33
2023/06/17 18:50:33;;;;;;;16.30;14.07;;;24.00;65.40;;;;;;4706182;55;21523;-32
2023/06/17 18:55:34;;;;;;;15.90;13.70;;;24.10;65.50;;;;;;4639789;55;21100;-39
2023/06/17 19:00:35;;;;;;;15.05;13.13;;;24.10;65.50;;;;;;4692459;56;21077;-37
2023/06/17 19:05:39;;;;;;;15.02;13.43;;;24.10;65.50;;;;;;4734680;55;21009;-39
2023/06/17 19:10:40;;;;;;;14.95;13.35;;;24.00;65.50;;;;;;4615525;60;21109;-37
2023/06/17 19:15:41;;;;;;;14.27;12.65;;;24.00;65.50;;;;;;4732329;55;21137;-37
2023/06/17 19:20:43;;;;;;;13.35;11.95;;;24.00;65.50;;;;;;4654988;55;21045;-35
2023/06/17 19:25:47;;;;;;;14.23;12.40;;;24.00;65.50;;;;;;4637737;56;21499;-35
2023/06/17 19:30:49;;;;;;;14.38;11.80;;;24.00;65.50;;;;;;4615816;60;21057;-36
2023/06/17 19:35:56;;;;;;;14.57;12.63;;;24.00;66.10;;;;;;4635076;55;21074;-40
2023/06/17 19:41:07;;;;;;;15.52;13.88;;;24.00;65.40;;;;;;4642104;55;21124;-38
2023/06/17 19:46:08;;;;;;;12.75;11.35;;;24.00;65.50;;;;;;4643767;56;21478;-37
2023/06/17 19:51:09;;;;;;;13.95;12.45;;;24.00;65.40;;;;;;4649082;55;21465;-36
2023/06/17 19:56:10;;;;;;;14.02;12.55;;;24.00;65.40;;;;;;4614530;60;21402;-39
2023/06/17 20:01:11;;;;;;;15.02;11.88;;;24.00;65.50;;;;;;4646801;55;21865;-36
2023/06/17 20:06:14;;;;;;;13.23;11.75;;;24.00;65.50;;;;;;4833521;55;21616;-37
2023/06/17 20:11:15;;;;;;;13.05;11.40;;;24.00;65.40;;;;;;4615770;60;21064;-38
2023/06/17 20:16:16;;;;;;;14.20;12.80;;;24.00;65.40;;;;;;4614631;59;21108;-37
2023/06/17 20:21:17;;;;;;;13.60;12.15;;;24.00;65.40;;;;;;4615494;60;21021;-37
2023/06/17 20:26:18;;;;;;;13.48;11.48;;;24.00;65.40;;;;;;4615766;59;21492;-38
2023/06/17 20:31:20;;;;;;;13.98;12.45;;;24.00;65.40;;;;;;4629490;55;21028;-37
2023/06/17 20:36:20;;;;;;;13.23;11.93;;;24.00;65.40;;;;;;4614743;59;21625;-37
2023/06/17 20:41:21;;;;;;;15.27;12.45;;;24.00;65.40;;;;;;4800013;55;21137;-38
2023/06/17 20:46:22;;;;;;;12.48;11.25;;;24.00;65.40;;;;;;4711524;55;21555;-34
2023/06/17 20:51:24;;;;;;;14.25;12.40;;;24.00;65.40;;;;;;4615490;60;21100;-37
2023/06/17 20:56:35;;;;;;;13.52;12.05;;;24.00;65.40;;;;;;4632244;55;21544;-37
2023/06/17 21:01:36;;;;;;;12.40;11.10;;;24.00;65.30;;;;;;4654401;56;21525;-37
2023/06/17 21:06:37;;;;;;;13.93;12.40;;;24.00;65.30;;;;;;4616497;55;21209;-37
2023/06/17 21:11:38;;;;;;;12.37;11.07;;;24.00;65.30;;;;;;4634636;55;21515;-35
2023/06/17 21:16:40;;;;;;;13.75;12.30;;;24.00;65.30;;;;;;4615562;60;21033;-37
2023/06/17 21:21:41;;;;;;;14.35;12.10;;;24.00;65.30;;;;;;4637939;55;21139;-38
2023/06/17 21:26:41;;;;;;;13.40;12.00;;;23.90;65.20;;;;;;4676716;55;21108;-37
2023/06/17 21:31:42;;;;;;;13.85;11.55;;;24.00;65.30;;;;;;4615513;59;21017;-37
2023/06/17 21:36:43;;;;;;;12.35;11.05;;;23.90;65.20;;;;;;4686818;55;21124;-36
2023/06/17 21:41:46;;;;;;;15.18;11.65;;;24.00;65.20;;;;;;4638345;55;21116;-38
2023/06/17 21:46:47;;;;;;;13.88;11.98;;;23.90;65.20;;;;;;4615148;59;21534;-39
2023/06/17 21:51:48;;;;;;;12.93;11.43;;;23.90;65.10;;;;;;4634790;55;21037;-38
2023/06/17 21:56:49;;;;;;;14.30;11.32;;;23.90;65.20;;;;;;4707222;55;21460;-36
2023/06/17 22:01:50;;;;;;;13.23;11.38;;;24.00;65.10;;;;;;4810486;55;21025;-38
2023/06/17 22:06:55;;;;;;;12.95;10.48;;;24.00;65.50;;;;;;4838688;55;21340;-38
2023/06/17 22:11:56;;;;;;;11.70;10.30;;;23.90;65.00;;;;;;4646105;55;21603;-35
2023/06/17 22:16:57;;;;;;;11.95;10.73;;;23.90;65.00;;;;;;4637700;55;21105;-35
2023/06/17 22:21:58;;;;;;;12.13;10.82;;;23.90;65.00;;;;;;4627622;55;21065;-36
2023/06/17 22:26:58;;;;;;;11.32;10.18;;;23.90;65.00;;;;;;4797488;55;21025;-37
2023/06/17 22:31:59;;;;;;;12.32;10.70;;;23.90;65.00;;;;;;4728976;55;21045;-38
2023/06/17 22:37:01;;;;;;;11.88;10.40;;;23.90;65.10;;;;;;4673628;55;21027;-38
2023/06/17 22:42:02;;;;;;;11.57;10.38;;;23.90;65.00;;;;;;4644848;56;21646;-38
2023/06/17 22:47:04;;;;;;;11.93;10.25;;;23.90;65.00;;;;;;4708013;56;21477;-38
2023/06/17 22:52:05;;;;;;;12.07;10.57;;;23.90;65.00;;;;;;4642079;56;21077;-34
2023/06/17 22:57:06;;;;;;;11.00;9.90;;;23.90;65.10;;;;;;4702770;56;21073;-33
2023/06/17 23:02:07;;;;;;;11.12;9.93;;;23.90;65.00;;;;;;4738095;56;21025;-34
2023/06/17 23:07:08;;;;;;;10.82;9.60;;;23.90;65.10;;;;;;4616081;60;21468;-36
2023/06/17 23:12:09;;;;;;;10.55;9.45;;;23.90;65.10;;;;;;4731480;56;21042;-35
2023/06/17 23:17:10;;;;;;;11.38;10.25;;;24.00;65.10;;;;;;4615588;60;21066;-41
2023/06/17 23:22:11;;;;;;;11.32;10.23;;;23.90;65.10;;;;;;4615874;59;21048;-36
2023/06/17 23:27:12;;;;;;;10.65;9.55;;;23.90;65.10;;;;;;4615588;60;21112;-35
2023/06/17 23:32:13;;;;;;;11.40;10.13;;;23.90;65.20;;;;;;4733069;56;21057;-37
2023/06/17 23:37:15;;;;;;;11.80;10.65;;;23.90;65.10;;;;;;4615370;59;21101;-37
2023/06/17 23:42:16;;;;;;;13.15;10.10;;;23.90;65.00;;;;;;4667509;56;21743;-38
2023/06/17 23:47:18;;;;;;;11.12;10.02;;;23.90;65.10;;;;;;4660472;56;21334;-37
2023/06/17 23:52:19;;;;;;;10.15;9.15;;;23.90;65.10;;;;;;4676008;56;21640;-37
2023/06/17 23:57:20;;;;;;;9.82;8.80;;;23.90;65.10;;;;;;4615519;60;21449;-39
